Ambrose, North Dakota
Current Conditions -  °F | °C
As of 10:55 PM on Friday 31 Oct 2014 (Local Time) from KD50 Reporting Station
Clear Clear  
Wind Chill: 27°   Ceiling: Unl
Heat Index: 37°   Visibility: 10mi
Dew Point: 16°   Wind: 18mph
Humidity: 41%   Direction: 180°S
Pressure: 29.89"   Gusts: 28mph
Location:  48.95°N, 103.48°W
Report Text: KD50 010355Z AUTO 18016G24KT 10SM CLR 03/M09 A2989 RMK AO2
Loading
Personal Weather Stations






























Interactive Weather Map
Tropical Storm Tracking
New forecast layout! Learn more

10-Day Weather Forecast

Advertisements
Track Severe Weather on mobile